Latest Weather Observations for Hervey Bay

IDQ60801

Issued at 2:32 pm EST Thursday 25 August 2016 (issued every 30 minutes, with the page automatically refreshed every 10 minutes)

About weather observations | Map of weather stations | Latest weather observations for QLD | Other Formats
Station Details ID: 040405 Name: HERVEY BAY AIRPORT Lat: -25.32 Lon: 152.88 Height: 12.98 m
Data from the previous 72 hours. | See also: Recent months at Hervey Bay
Date/Time
EST
Temp
°C
App
Temp
°C
Dew
Point
°C
Rel
Hum
%
Delta-T
°C
Wind Press
QNH
hPa
Press
MSL
hPa
Rain since
9am
mm
Dir  Spd
km/h
Gust
km/h
Spd
kts
Gust
kts
25/02:30pm 22.1 18.6 7.1 38 7.7 W 15 24 8 13 1010.5 1010.4 0.0
25/02:00pm 21.9 18.9 9.4 45 6.7 SW 15 28 8 15 1010.6 1010.5 0.0
25/01:30pm 21.3 17.7 8.2 43 6.9 WSW 17 26 9 14 1010.9 1010.8 0.0
25/01:00pm 21.5 17.9 9.7 47 6.4 W 19 30 10 16 1011.2 1011.1 0.0
25/12:30pm 20.4 16.4 9.0 48 6.0 W 20 28 11 15 1011.7 1011.6 0.0
25/12:00pm 20.5 18.0 11.2 55 5.1 WNW 15 26 8 14 1012.2 1012.1 0.0
25/11:30am 19.1 17.3 10.9 59 4.5 W 11 20 6 11 1012.9 1012.8 0.0
25/11:00am 17.9 15.3 10.8 63 3.8 W 15 24 8 13 1012.9 1012.8 0.0
25/10:30am 18.3 15.7 10.7 61 4.1 WSW 15 24 8 13 1013.3 1013.2 0.0
25/10:00am 18.0 16.2 12.0 68 3.3 WSW 13 22 7 12 1013.1 1013.0 0.0
25/09:30am 17.6 16.0 12.7 73 2.7 WSW 13 20 7 11 1013.7 1013.6 0.0
25/09:00am 17.6 15.7 12.9 74 2.6 WSW 15 20 8 11 1013.4 1013.3 4.8
25/08:30am 17.0 14.8 13.3 79 2.1 W 17 28 9 15 1014.1 1014.0 4.8
25/08:00am 16.8 15.2 13.9 83 1.6 W 15 24 8 13 1013.0 1012.9 4.6
25/07:30am 16.8 16.3 14.8 88 1.2 W 11 19 6 10 1012.8 1012.7 4.6
25/07:00am 16.8 15.9 14.8 88 1.2 W 13 22 7 12 1012.1 1012.0 4.6
25/06:30am 16.8 16.2 14.6 87 1.3 WNW 11 17 6 9 1011.3 1011.2 4.6
25/06:00am 17.1 16.1 14.7 86 1.4 WNW 13 19 7 10 1011.4 1011.3 4.6
25/05:30am 17.0 16.1 14.8 87 1.3 NW 13 20 7 11 1010.8 1010.7 4.6
25/05:00am 16.7 16.5 14.7 88 1.2 WNW 9 15 5 8 1010.2 1010.1 4.6
25/04:30am 16.8 16.2 14.6 87 1.3 NW 11 15 6 8 1010.3 1010.2 4.6
25/04:00am 17.0 16.2 15.0 88 1.2 WNW 13 15 7 8 1010.3 1010.2 4.6
25/03:30am 17.2 16.4 15.0 87 1.3 WNW 13 17 7 9 1009.8 1009.7 4.6
25/03:00am 17.6 16.9 15.4 87 1.3 WNW 13 19 7 10 1010.3 1010.2 4.6
25/02:30am 18.2 16.9 15.8 86 1.4 WNW 17 22 9 12 1010.5 1010.4 4.4
25/02:00am 18.6 16.7 15.8 84 1.7 NNW 20 32 11 17 1009.6 1009.5 4.4
25/01:30am 18.8 17.2 14.9 78 2.3 NW 17 26 9 14 1010.2 1010.1 4.0
25/01:00am 18.9 16.8 14.8 77 2.4 NW 19 26 10 14 1010.0 1009.9 4.0
25/12:30am 19.2 17.4 14.5 74 2.7 NW 17 24 9 13 1010.9 1010.8 4.0
25/12:00am 19.4 20.1 15.7 79 2.2 W 6 11 3 6 1009.3 1009.2 4.0
 
Date/Time
EST
Temp
°C
App
Temp
°C
Dew
Point
°C
Rel
Hum
%
Delta-T
°C
Wind Press
QNH
hPa
Press
MSL
hPa
Rain since
9am
mm
Dir  Spd
km/h
Gust
km/h
Spd
kts
Gust
kts
24/11:30pm 19.8 19.5 15.4 76 2.6 WNW 11 15 6 8 1010.0 1009.9 4.0
24/11:00pm 19.7 18.8 15.8 78 2.3 NW 15 20 8 11 1009.8 1009.7 4.0
24/10:30pm 19.8 19.5 16.4 81 2.0 NNW 13 19 7 10 1009.1 1009.0 4.0
24/10:00pm 19.5 20.4 16.5 83 1.8 N 7 11 4 6 1009.3 1009.2 3.6
24/09:30pm 19.0 20.3 17.0 88 1.2 WNW 6 7 3 4 1010.0 1009.9 3.6
24/09:00pm 19.2 20.2 16.8 86 1.5 NW 7 9 4 5 1009.5 1009.4 3.6
24/08:30pm 19.1 21.6 17.2 89 1.2 CALM 0 0 0 0 1009.1 1009.0 3.6
24/08:00pm 19.4 20.2 17.4 88 1.2 NNE 9 11 5 6 1009.1 1009.0 3.6
24/07:30pm 19.7 20.7 16.9 84 1.7 N 7 9 4 5 1009.4 1009.3 3.6
24/07:00pm 19.7 20.9 16.9 84 1.7 NW 6 7 3 4 1009.3 1009.2 3.6
24/06:30pm 19.9 21.9 16.9 83 1.8 WSW 2 6 1 3 1009.6 1009.5 3.6
24/06:00pm 20.2 20.7 16.6 80 2.2 NW 9 11 5 6 1009.4 1009.3 3.6
24/05:30pm 20.4 20.9 16.6 79 2.3 NW 9 13 5 7 1009.0 1008.9 3.6
24/05:00pm 20.4 20.5 16.4 78 2.4 W 11 17 6 9 1008.9 1008.8 3.6
24/04:30pm 20.5 21.3 17.3 82 2.0 W 9 13 5 7 1008.3 1008.2 3.6
24/04:00pm 20.5 20.8 16.9 80 2.2 W 11 20 6 11 1007.7 1007.6 3.6
24/03:30pm 20.6 19.5 17.2 81 2.1 WSW 19 32 10 17 1007.3 1007.2 3.6
24/03:15pm 20.9 21.0 18.3 85 1.6 W 15 28 8 15 1007.1 1007.0 3.6
24/03:00pm 20.9 18.7 18.8 88 1.3 W 28 46 15 25 1007.2 1007.1 3.6
24/02:59pm 20.7 18.0 18.5 87 1.4 WNW 30 46 16 25 1007.1 1007.0 3.6
24/02:53pm 21.9 19.4 18.9 83 1.9 NNW 30 48 16 26 1007.0 1006.9 1.4
24/02:47pm 23.1 20.8 19.3 79 2.4 NNW 30 48 16 26 1005.9 1005.8 0.2
24/02:30pm 23.4 20.9 19.8 80 2.3 NNW 32 44 17 24 1006.2 1006.1 0.2
24/02:00pm 23.4 20.8 19.8 80 2.3 NNW 33 50 18 27 1006.2 1006.1 0.2
24/01:57pm 23.5 21.1 20.0 81 2.3 NNW 32 50 17 27 1006.2 1006.1 0.2
24/01:30pm 23.1 20.8 20.2 84 1.9 NNW 32 48 17 26 1006.4 1006.3 0.2
24/01:29pm 23.1 20.8 20.2 84 1.9 NNW 32 48 17 26 1006.4 1006.3 0.2
24/01:17pm 22.7 20.6 20.6 88 1.4 NNW 32 50 17 27 1006.5 1006.4 0.2
24/01:10pm 22.9 20.5 20.4 86 1.6 NNW 33 50 18 27 1006.5 1006.4 0.2
24/01:00pm 23.6 21.7 20.1 81 2.3 NNW 30 48 16 26 1006.7 1006.6 0.0
24/12:52pm 24.4 22.8 20.1 77 2.8 NNW 28 48 15 26 1006.9 1006.8 0.0
24/12:30pm 23.5 20.9 19.8 80 2.4 NNW 33 44 18 24 1007.2 1007.1 0.0
24/12:00pm 24.0 22.2 20.3 80 2.4 NNW 30 41 16 22 1007.6 1007.5 0.0
24/11:33am 24.6 23.2 21.1 81 2.3 NNW 30 48 16 26 1008.3 1008.2 0.0
24/11:30am 24.1 21.9 20.4 80 2.4 NNW 32 48 17 26 1008.3 1008.2 0.0
24/11:00am 23.6 22.2 20.5 83 2.0 NNW 28 41 15 22 1008.9 1008.8 0.0
24/10:30am 22.9 22.0 20.6 87 1.5 NNW 26 37 14 20 1009.7 1009.6 0.0
24/10:00am 22.2 22.3 20.3 89 1.2 NNW 20 30 11 16 1010.1 1010.0 0.0
24/09:30am 22.7 22.9 20.6 88 1.4 NNW 20 32 11 17 1010.1 1010.0 0.0
24/09:00am 21.9 22.0 20.4 91 1.0 NNW 20 35 11 19 1010.1 1010.0 3.2
24/08:30am 22.0 22.3 20.3 90 1.1 N 19 26 10 14 1010.1 1010.0 3.2
24/08:00am 22.1 23.3 20.6 91 1.0 NNW 15 22 8 12 1010.1 1010.0 3.2
24/07:30am 21.7 22.3 20.3 92 0.9 N 17 24 9 13 1009.9 1009.8 3.2
24/07:00am 21.5 21.7 20.1 92 0.9 N 19 28 10 15 1009.6 1009.5 3.2
24/06:30am 21.4 21.9 20.0 92 0.9 N 17 24 9 13 1009.3 1009.2 3.2
24/06:00am 21.4 22.3 20.0 92 0.9 N 15 22 8 12 1009.0 1008.9 3.2
24/05:30am 21.2 21.7 20.0 93 0.8 N 17 30 9 16 1008.7 1008.6 3.2
24/05:00am 21.1 21.5 19.9 93 0.8 N 17 24 9 13 1008.4 1008.3 3.2
24/04:30am 21.1 21.4 19.7 92 0.9 N 17 24 9 13 1008.3 1008.2 3.2
24/04:00am 21.2 21.6 19.8 92 0.9 N 17 26 9 14 1008.5 1008.4 3.2
24/03:30am 21.1 21.5 19.9 93 0.8 N 17 24 9 13 1008.8 1008.7 3.2
24/03:00am 21.0 21.4 19.8 93 0.8 N 17 24 9 13 1009.1 1009.0 3.2
24/02:30am 21.0 21.4 19.8 93 0.8 NNE 17 24 9 13 1009.3 1009.2 3.2
24/02:00am 21.0 22.2 19.8 93 0.8 NNE 13 20 7 11 1009.9 1009.8 3.0
24/01:30am 21.1 21.9 19.9 93 0.8 NNE 15 20 8 11 1010.1 1010.0 3.0
24/01:00am 21.0 22.2 19.8 93 0.8 NNE 13 19 7 10 1010.5 1010.4 3.0
24/12:39am 21.0 21.0 19.8 93 0.8 N 19 26 10 14 1010.7 1010.6 3.0
24/12:30am 20.9 20.9 19.7 93 0.8 NNE 19 26 10 14 1010.9 1010.8 3.0
24/12:20am 21.0 21.4 19.8 93 0.8 NNE 17 26 9 14 1011.1 1011.0 2.8
24/12:00am 20.8 21.8 19.5 92 0.8 NNE 13 17 7 9 1011.2 1011.1 2.6
 
Date/Time
EST
Temp
°C
App
Temp
°C
Dew
Point
°C
Rel
Hum
%
Delta-T
°C
Wind Press
QNH
hPa
Press
MSL
hPa
Rain since
9am
mm
Dir  Spd
km/h
Gust
km/h
Spd
kts
Gust
kts
23/11:30pm 20.8 21.5 19.6 93 0.8 NE 15 17 8 9 1011.6 1011.5 2.6
23/11:00pm 20.6 22.4 19.6 94 0.6 NE 9 11 5 6 1011.9 1011.8 2.6
23/10:30pm 20.2 22.3 19.0 93 0.8 NE 6 9 3 5 1012.3 1012.2 2.6
23/10:00pm 20.1 22.0 18.9 93 0.8 ENE 7 9 4 5 1012.8 1012.7 2.6
23/09:30pm 19.6 22.5 18.3 92 0.8 CALM 0 0 0 0 1013.2 1013.1 2.6
23/09:00pm 19.6 22.1 18.1 91 0.9 ENE 2 6 1 3 1013.3 1013.2 2.6
23/08:30pm 19.9 22.2 18.6 92 0.8 ENE 4 6 2 3 1013.4 1013.3 2.6
23/08:00pm 19.8 22.1 18.5 92 0.8 NNE 4 6 2 3 1013.4 1013.3 2.6
23/07:49pm 19.8 21.7 18.5 92 0.8 N 6 11 3 6 1013.4 1013.3 2.6
23/07:30pm 20.0 21.9 18.5 91 0.9 NE 6 7 3 4 1013.2 1013.1 2.4
23/07:06pm 20.0 21.7 18.5 91 0.9 ENE 7 11 4 6 1013.2 1013.1 1.4
23/07:00pm 20.1 21.8 18.4 90 1.1 E 7 7 4 4 1013.2 1013.1 0.8
23/06:51pm 20.0 22.5 18.1 89 1.2 NE 2 7 1 4 1013.2 1013.1 0.8
23/06:31pm 19.6 21.5 17.7 89 1.2 N 4 6 2 3 1013.3 1013.2 0.6
23/06:30pm 20.0 22.1 18.1 89 1.2 N 4 7 2 4 1013.3 1013.2 0.6
23/06:06pm 20.7 21.6 19.2 91 0.9 N 13 20 7 11 1013.1 1013.0 0.4
23/06:00pm 20.9 21.5 19.4 91 1.0 NNW 15 24 8 13 1013.1 1013.0 0.4
23/05:51pm 21.1 21.7 19.4 90 1.1 N 15 24 8 13 1013.1 1013.0 0.2
23/05:30pm 21.4 22.3 19.3 88 1.3 N 13 19 7 10 1012.9 1012.8 0.0
23/05:00pm 22.0 22.8 19.0 83 1.9 N 13 17 7 9 1012.5 1012.4 0.0
23/04:30pm 22.5 22.6 18.3 77 2.6 N 15 20 8 11 1012.2 1012.1 0.0
23/04:00pm 23.1 22.3 18.0 73 3.2 NNE 19 24 10 13 1011.8 1011.7 0.0
23/03:30pm 24.2 24.0 18.4 70 3.7 N 17 26 9 14 1011.8 1011.7 0.0
23/03:00pm 24.1 22.9 17.6 67 4.1 NNE 20 28 11 15 1012.0 1011.9 0.0
23/02:30pm 25.0 24.6 18.0 65 4.4 N 17 26 9 14 1012.3 1012.2 0.0
23/02:00pm 24.7 23.8 17.7 65 4.4 N 19 26 10 14 1012.4 1012.3 0.0
23/01:30pm 24.7 23.6 17.7 65 4.4 N 20 30 11 16 1012.4 1012.3 0.0
23/01:00pm 24.4 23.4 17.6 66 4.2 N 19 28 10 15 1012.4 1012.3 0.0
23/12:30pm 24.2 23.1 17.2 65 4.3 N 19 28 10 15 1013.0 1012.9 0.0
23/12:00pm 24.2 22.8 17.0 64 4.4 N 20 32 11 17 1013.9 1013.8 0.0
23/11:30am 24.5 23.0 16.7 61 4.8 NNW 20 28 11 15 1014.4 1014.3 0.0
23/11:00am 24.5 23.7 17.2 63 4.5 NNW 17 26 9 14 1014.6 1014.5 0.0
23/10:30am 23.7 22.5 17.0 66 4.1 N 19 28 10 15 1014.6 1014.5 0.0
23/10:00am 23.4 22.3 17.4 69 3.7 N 19 26 10 14 1014.8 1014.7 0.0
23/09:30am 22.8 21.5 17.3 71 3.4 N 20 28 11 15 1014.9 1014.8 0.0
23/09:00am 22.6 22.2 17.1 71 3.4 N 15 22 8 12 1014.9 1014.8 0.0
23/08:30am 21.4 21.8 17.2 77 2.6 NE 11 15 6 8 1014.7 1014.6 0.0
23/08:00am 20.1 21.1 17.7 86 1.5 ENE 9 11 5 6 1014.6 1014.5 0.0
23/07:30am 16.1 17.6 14.6 91 0.9 CALM 0 0 0 0 1015.0 1014.9 0.0
23/07:00am 13.8 13.5 12.7 93 0.6 SSW 6 7 3 4 1015.3 1015.2 0.0
23/06:30am 12.2 12.5 10.9 92 0.7 CALM 0 0 0 0 1015.5 1015.4 0.0
23/06:00am 12.3 12.6 11.0 92 0.7 CALM 0 0 0 0 1015.3 1015.2 0.0
23/05:30am 11.7 11.8 10.3 91 0.7 CALM 0 0 0 0 1015.1 1015.0 0.0
23/05:00am 12.0 12.2 10.6 91 0.7 CALM 0 0 0 0 1014.7 1014.6 0.0
23/04:30am 11.9 12.1 10.5 91 0.7 CALM 0 0 0 0 1014.4 1014.3 0.0
23/04:00am 12.3 12.6 11.0 92 0.7 CALM 0 0 0 0 1014.4 1014.3 0.0
23/03:30am 12.5 12.9 11.1 91 0.7 CALM 0 0 0 0 1014.4 1014.3 0.0
23/03:00am 12.5 12.8 10.9 90 0.8 CALM 0 0 0 0 1014.4 1014.3 0.0
23/02:30am 13.2 13.7 11.6 90 0.9 CALM 0 0 0 0 1014.5 1014.4 0.0
23/02:00am 13.5 14.1 11.9 90 0.9 CALM 0 0 0 0 1014.9 1014.8 0.0
23/01:30am 14.1 14.9 12.7 91 0.8 CALM 0 0 0 0 1015.1 1015.0 0.0
23/01:00am 14.4 15.0 13.1 92 0.7 SW 2 6 1 3 1015.3 1015.2 0.0
23/12:30am 14.0 14.8 12.6 91 0.8 CALM 0 0 0 0 1015.3 1015.2 0.0
23/12:00am 13.9 14.7 12.5 91 0.8 CALM 0 0 0 0 1015.5 1015.4 0.0
 
Date/Time
EST
Temp
°C
App
Temp
°C
Dew
Point
°C
Rel
Hum
%
Delta-T
°C
Wind Press
QNH
hPa
Press
MSL
hPa
Rain since
9am
mm
Dir  Spd
km/h
Gust
km/h
Spd
kts
Gust
kts
22/11:30pm 13.8 14.4 12.0 89 1.0 CALM 0 0 0 0 1015.7 1015.6 0.0
22/11:00pm 14.1 14.8 12.3 89 1.0 CALM 0 0 0 0 1015.8 1015.7 0.0
22/10:30pm 14.0 14.2 11.9 87 1.1 NE 2 6 1 3 1015.7 1015.6 0.0
22/10:00pm 14.5 13.9 12.4 87 1.1 NE 7 9 4 5 1015.7 1015.6 0.0
22/09:30pm 15.3 15.1 13.0 86 1.3 NE 6 7 3 4 1015.7 1015.6 0.0
22/09:00pm 15.9 15.7 13.0 83 1.6 NE 6 7 3 4 1015.7 1015.6 0.0
22/08:30pm 17.5 17.2 14.4 82 1.8 ENE 9 9 5 5 1015.6 1015.5 0.0
22/08:00pm 17.7 17.8 14.4 81 1.9 NE 7 9 4 5 1015.5 1015.4 0.0
22/07:30pm 19.2 19.9 16.2 83 1.8 NNE 7 9 4 5 1015.5 1015.4 0.0
22/07:00pm 19.5 19.9 16.2 81 2.0 NNE 9 11 5 6 1015.1 1015.0 0.0
22/06:30pm 19.9 20.1 15.7 77 2.5 NNE 9 11 5 6 1015.0 1014.9 0.0
22/06:00pm 20.3 20.7 15.3 73 3.0 N 7 11 4 6 1015.0 1014.9 0.0
22/05:30pm 20.8 20.3 14.9 69 3.5 N 11 15 6 8 1014.8 1014.7 0.0
22/05:00pm 21.4 20.9 14.8 66 3.9 N 11 19 6 10 1014.6 1014.5 0.0
22/04:30pm 21.9 20.5 15.5 67 3.8 NNE 17 24 9 13 1014.4 1014.3 0.0
22/04:00pm 23.0 21.6 15.6 63 4.4 N 17 26 9 14 1014.4 1014.3 0.0
22/03:30pm 22.9 20.9 15.0 61 4.7 N 19 30 10 16 1014.4 1014.3 0.0
22/03:00pm 23.6 21.8 15.4 60 4.9 N 19 30 10 16 1014.4 1014.3 0.0

Other Formats:

Comma delimited format used in spreadsheet applications
http://www.bom.gov.au/fwo/IDQ60801/IDQ60801.95565.axf

JavaScript Object Notation format (JSON) in row-major order
http://www.bom.gov.au/fwo/IDQ60801/IDQ60801.95565.json